createdAt,value
2019-02-26T00:00:47.356Z,102310.04
2019-02-26T00:01:53.028Z,102304.22
2019-02-26T00:03:01.825Z,102303.31
2019-02-26T00:04:04.391Z,102300.62
2019-02-26T00:05:08.717Z,102303.77
2019-02-26T00:06:12.550Z,102299.73
2019-02-26T00:07:20.599Z,102299.73
2019-02-26T00:08:24.597Z,102302.42
2019-02-26T00:09:29.980Z,102295.23
2019-02-26T00:10:36.317Z,102295.22
2019-02-26T00:11:40.322Z,102290.28
2019-02-26T00:12:44.953Z,102288.03
2019-02-26T00:13:50.762Z,102288.47
2019-02-26T00:14:56.940Z,102280.42
2019-02-26T00:16:05.588Z,102290.70
2019-02-26T00:17:10.532Z,102296.56
2019-02-26T00:18:13.875Z,102301.49
2019-02-26T00:19:19.401Z,102308.20
2019-02-26T00:20:23.551Z,102307.75
2019-02-26T00:21:29.267Z,102311.78
2019-02-26T00:22:34.388Z,102310.86
2019-02-26T00:23:39.160Z,102314.87
2019-02-26T00:24:44.475Z,102310.83
2019-02-26T00:25:49.662Z,102308.57
2019-02-26T00:26:54.457Z,102313.07
2019-02-26T00:27:59.326Z,102304.52
2019-02-26T00:29:04.483Z,102313.91
2019-02-26T00:30:11.334Z,102312.07
2019-02-26T00:31:16.339Z,102313.88
2019-02-26T00:32:20.277Z,102310.73
2019-02-26T00:33:26.763Z,102313.42
2019-02-26T00:34:32.271Z,102311.17
2019-02-26T00:35:36.854Z,102284.66
2019-02-26T00:36:40.695Z,102302.67
2019-02-26T00:37:46.639Z,102304.92
2019-02-26T00:38:51.823Z,102303.14
2019-02-26T00:39:56.473Z,102309.86
2019-02-26T00:41:02.186Z,102311.64
2019-02-26T00:42:06.658Z,102304.91
2019-02-26T00:43:11.158Z,102298.20
2019-02-26T00:44:15.421Z,102299.09
2019-02-26T00:45:24.749Z,102295.04
2019-02-26T00:46:26.379Z,102293.67
2019-02-26T00:47:33.904Z,102286.95
2019-02-26T00:48:40.254Z,102294.56
2019-02-26T00:49:44.227Z,102293.66
2019-02-26T00:50:52.197Z,102291.41
2019-02-26T00:51:56.170Z,102288.73
2019-02-26T00:53:01.811Z,102292.31
2019-02-26T00:54:05.975Z,102297.23
2019-02-26T00:55:10.634Z,102294.55
2019-02-26T00:56:15.147Z,102299.05
2019-02-26T00:57:19.297Z,102301.73
2019-02-26T00:58:23.132Z,102301.29
2019-02-26T00:59:27.414Z,102302.17
2019-02-26T01:00:33.192Z,102298.58
2019-02-26T01:01:38.367Z,102303.98
2019-02-26T01:02:42.730Z,102300.39
2019-02-26T01:03:49.238Z,102299.48
2019-02-26T01:04:52.890Z,102297.23
2019-02-26T01:05:59.111Z,102301.26
2019-02-26T01:07:05.325Z,102299.02
2019-02-26T01:08:12.760Z,102293.63
2019-02-26T01:09:15.344Z,102301.24
2019-02-26T01:10:21.230Z,102300.34
2019-02-26T01:11:27.888Z,102296.31
2019-02-26T01:12:33.023Z,102299.00
2019-02-26T01:13:38.334Z,102299.00
2019-02-26T01:14:44.065Z,102295.84
2019-02-26T01:15:48.453Z,102290.91
2019-02-26T01:16:52.607Z,102289.59
2019-02-26T01:17:58.779Z,102292.28
2019-02-26T01:19:02.753Z,102289.12
2019-02-26T01:20:09.582Z,102288.23
2019-02-26T01:21:14.243Z,102299.43
2019-02-26T01:22:18.728Z,102289.98
2019-02-26T01:23:24.379Z,102294.02
2019-02-26T01:24:30.460Z,102285.03
2019-02-26T01:25:38.236Z,102289.06
2019-02-26T01:26:42.918Z,102288.18
2019-02-26T01:27:48.337Z,102286.84
2019-02-26T01:28:53.669Z,102286.84
2019-02-26T01:30:00.264Z,102289.98
2019-02-26T01:31:05.020Z,102283.27
2019-02-26T01:32:13.202Z,102283.70
2019-02-26T01:33:16.039Z,102281.91
2019-02-26T01:34:20.418Z,102277.87
2019-02-26T01:35:26.179Z,102280.09
2019-02-26T01:36:30.778Z,102282.31
2019-02-26T01:37:36.621Z,102283.22
2019-02-26T01:38:41.657Z,102280.95
2019-02-26T01:39:47.853Z,102280.05
2019-02-26T01:40:54.144Z,102286.77
2019-02-26T01:41:58.852Z,102278.28
2019-02-26T01:43:05.496Z,102280.49
2019-02-26T01:44:08.960Z,102272.89
2019-02-26T01:45:13.455Z,102274.67
2019-02-26T01:46:18.753Z,102267.94
2019-02-26T01:47:24.226Z,102269.28
2019-02-26T01:48:32.024Z,102270.61
2019-02-26T01:49:36.334Z,102270.61
2019-02-26T01:50:40.795Z,102265.66
2019-02-26T01:51:47.461Z,102267.45
2019-02-26T01:52:51.883Z,102266.58
2019-02-26T01:53:57.097Z,102268.81
2019-02-26T01:55:02.798Z,102271.48
2019-02-26T01:56:07.010Z,102263.41
2019-02-26T01:57:11.239Z,102266.98
2019-02-26T01:58:16.564Z,102264.74
2019-02-26T01:59:20.606Z,102260.68
2019-02-26T02:00:25.999Z,102264.71
2019-02-26T02:01:29.912Z,102262.02
2019-02-26T02:02:33.822Z,102259.80
2019-02-26T02:03:38.055Z,102259.80
2019-02-26T02:04:43.466Z,102264.27
2019-02-26T02:05:48.531Z,102268.74
2019-02-26T02:06:54.894Z,102266.48
2019-02-26T02:07:59.898Z,102268.23
2019-02-26T02:09:04.947Z,102268.67
2019-02-26T02:10:10.612Z,102264.63
2019-02-26T02:11:15.147Z,102264.64
2019-02-26T02:12:19.650Z,102265.52
2019-02-26T02:13:28.305Z,102258.81
2019-02-26T02:14:30.250Z,102257.91
2019-02-26T02:15:35.711Z,102258.34
2019-02-26T02:16:40.055Z,102260.61
2019-02-26T02:17:44.231Z,102263.72
2019-02-26T02:18:48.879Z,102267.31
2019-02-26T02:19:53.767Z,102255.23
2019-02-26T02:20:58.257Z,102256.56
2019-02-26T02:22:02.540Z,102252.09
2019-02-26T02:23:07.147Z,102248.04
2019-02-26T02:24:14.720Z,102248.92
2019-02-26T02:25:17.334Z,102251.63
2019-02-26T02:26:21.314Z,102252.50
2019-02-26T02:27:28.127Z,102252.94
2019-02-26T02:28:33.221Z,102250.23
2019-02-26T02:29:37.185Z,102256.05
2019-02-26T02:30:41.412Z,102253.37
2019-02-26T02:31:45.607Z,102253.82
2019-02-26T02:32:54.062Z,102250.22
2019-02-26T02:33:55.743Z,102259.64
2019-02-26T02:35:03.437Z,102252.44
2019-02-26T02:36:05.784Z,102255.55
2019-02-26T02:37:10.209Z,102257.78
2019-02-26T02:38:14.121Z,102256.87
2019-02-26T02:39:20.781Z,102258.70
2019-02-26T02:40:23.912Z,102255.55
2019-02-26T02:41:28.077Z,102255.55
2019-02-26T02:42:35.063Z,102257.33
2019-02-26T02:43:39.065Z,102256.89
2019-02-26T02:44:44.858Z,102254.63
2019-02-26T02:45:49.995Z,102247.91
2019-02-26T02:46:54.828Z,102253.30
2019-02-26T02:48:00.739Z,102249.70
2019-02-26T02:49:07.381Z,102245.67
2019-02-26T02:50:12.656Z,102254.17
2019-02-26T02:51:17.455Z,102247.88
2019-02-26T02:52:21.443Z,102244.73
2019-02-26T02:53:27.413Z,102243.84
2019-02-26T02:54:32.074Z,102247.41
2019-02-26T02:55:37.921Z,102245.61
2019-02-26T02:56:44.251Z,102250.09
2019-02-26T02:57:51.951Z,102250.98
2019-02-26T02:58:53.855Z,102249.16
2019-02-26T02:59:59.685Z,102248.70
2019-02-26T03:01:03.894Z,102253.18
2019-02-26T03:02:09.340Z,102249.59
2019-02-26T03:03:13.715Z,102248.67
2019-02-26T03:04:19.774Z,102250.90
2019-02-26T03:05:23.575Z,102250.00
2019-02-26T03:06:30.182Z,102242.84
2019-02-26T03:07:33.784Z,102243.28
2019-02-26T03:08:39.511Z,102216.78
2019-02-26T03:09:45.669Z,102242.38
2019-02-26T03:10:49.380Z,102242.38
2019-02-26T03:11:55.023Z,102241.92
2019-02-26T03:13:00.425Z,102239.67
2019-02-26T03:14:06.236Z,102242.36
2019-02-26T03:15:11.892Z,102238.77
2019-02-26T03:16:18.738Z,102232.98
2019-02-26T03:17:21.868Z,102232.08
2019-02-26T03:18:26.112Z,102231.64
2019-02-26T03:19:32.662Z,102228.91
2019-02-26T03:20:40.175Z,102232.94
2019-02-26T03:21:44.631Z,102230.67
2019-02-26T03:22:49.135Z,102224.40
2019-02-26T03:23:53.071Z,102220.80
2019-02-26T03:24:59.519Z,102224.34
2019-02-26T03:26:03.360Z,102218.96
2019-02-26T03:27:07.634Z,102225.22
2019-02-26T03:28:11.563Z,102217.58
2019-02-26T03:29:15.404Z,102217.58
2019-02-26T03:30:26.731Z,102215.34
2019-02-26T03:31:29.248Z,102215.76
2019-02-26T03:32:36.044Z,102213.05
2019-02-26T03:33:37.881Z,102212.15
2019-02-26T03:34:42.511Z,102208.59
2019-02-26T03:35:46.437Z,102209.94
2019-02-26T03:36:50.617Z,102206.36
2019-02-26T03:37:57.297Z,102210.38
2019-02-26T03:39:02.771Z,102198.28
2019-02-26T03:40:08.224Z,102197.36
2019-02-26T03:41:13.273Z,102201.83
2019-02-26T03:42:20.683Z,102193.75
2019-02-26T03:43:23.220Z,102199.56
2019-02-26T03:44:30.244Z,102191.95
2019-02-26T03:45:34.224Z,102192.39
2019-02-26T03:46:38.378Z,102191.52
2019-02-26T03:47:42.363Z,102190.19
2019-02-26T03:48:46.358Z,102185.67
2019-02-26T03:49:50.477Z,102189.70
2019-02-26T03:50:54.477Z,102189.72
2019-02-26T03:52:00.037Z,102185.67
2019-02-26T03:53:09.034Z,102184.78
2019-02-26T03:54:10.483Z,102183.44
2019-02-26T03:55:18.374Z,102188.80
2019-02-26T03:56:20.674Z,102184.78
2019-02-26T03:57:25.371Z,102181.66
2019-02-26T03:58:29.396Z,102180.29
2019-02-26T03:59:33.394Z,102181.63
2019-02-26T04:00:40.964Z,102180.29
2019-02-26T04:01:44.038Z,102182.53
2019-02-26T04:02:50.924Z,102182.95
2019-02-26T04:03:54.653Z,102191.91
2019-02-26T04:05:03.013Z,102186.95
2019-02-26T04:06:09.191Z,102194.56
2019-02-26T04:07:11.888Z,102189.64
2019-02-26T04:08:19.012Z,102193.69
2019-02-26T04:09:22.949Z,102192.33
2019-02-26T04:10:26.930Z,102192.78
2019-02-26T04:11:30.765Z,102187.33
2019-02-26T04:12:39.190Z,102194.47
2019-02-26T04:13:40.999Z,102189.50
2019-02-26T04:14:46.384Z,102187.27
2019-02-26T04:15:53.305Z,102192.18
2019-02-26T04:16:58.642Z,102195.69
2019-02-26T04:18:03.072Z,102199.67
2019-02-26T04:19:08.915Z,102197.88
2019-02-26T04:20:12.876Z,102195.63
2019-02-26T04:21:18.258Z,102196.07
2019-02-26T04:22:33.059Z,102190.69
2019-02-26T04:23:38.813Z,102188.91
2019-02-26T04:24:42.938Z,102188.88
2019-02-26T04:26:36.953Z,102194.70
2019-02-26T04:28:10.836Z,102191.59
2019-02-26T04:29:44.053Z,102186.66
2019-02-26T04:31:27.286Z,102184.86
2019-02-26T04:33:30.152Z,102180.81
2019-02-26T04:34:41.587Z,102185.72
2019-02-26T04:36:16.800Z,102187.90
2019-02-26T04:37:53.684Z,102187.90
2019-02-26T04:39:24.363Z,102183.88
2019-02-26T04:40:47.727Z,102183.41
2019-02-26T04:42:32.743Z,102182.07
2019-02-26T04:44:13.490Z,102181.64
2019-02-26T04:46:02.223Z,102177.62
2019-02-26T04:47:23.597Z,102178.96
2019-02-26T04:48:31.323Z,102183.86
2019-02-26T04:49:36.730Z,102182.98
2019-02-26T04:50:43.987Z,102182.52
2019-02-26T04:51:48.381Z,102180.29
2019-02-26T04:52:55.389Z,102189.23
2019-02-26T04:54:00.113Z,102181.19
2019-02-26T04:55:04.972Z,102183.88
2019-02-26T04:56:14.400Z,102182.53
2019-02-26T04:57:15.178Z,102181.19
2019-02-26T04:58:20.746Z,102183.41
2019-02-26T04:59:25.011Z,102186.11
2019-02-26T05:00:30.458Z,102187.45
2019-02-26T05:01:34.771Z,102183.44
2019-02-26T05:02:38.964Z,102191.05
2019-02-26T05:03:43.203Z,102187.92
2019-02-26T05:04:47.544Z,102189.70
2019-02-26T05:05:53.920Z,102187.02
2019-02-26T05:06:57.179Z,102184.34
2019-02-26T05:08:04.052Z,102187.48
2019-02-26T05:09:08.075Z,102183.45
2019-02-26T05:10:13.183Z,102185.27
2019-02-26T05:11:30.781Z,102183.45
2019-02-26T05:12:25.171Z,102180.78
2019-02-26T05:13:30.206Z,102183.92
2019-02-26T05:14:34.914Z,102181.23
2019-02-26T05:15:39.068Z,102179.44
2019-02-26T05:16:43.652Z,102177.63
2019-02-26T05:17:48.000Z,102169.56
2019-02-26T05:18:55.008Z,102181.63
2019-02-26T05:19:57.784Z,102184.33
2019-02-26T05:21:04.559Z,102184.30
2019-02-26T05:22:08.440Z,102190.56
2019-02-26T05:23:12.615Z,102183.40
2019-02-26T05:24:18.005Z,102186.50
2019-02-26T05:25:22.120Z,102192.78
2019-02-26T05:26:26.253Z,102186.95
2019-02-26T05:27:30.444Z,102185.16
2019-02-26T05:28:37.632Z,102191.39
2019-02-26T05:29:41.014Z,102191.38
2019-02-26T05:30:49.524Z,102191.80
2019-02-26T05:31:52.472Z,102188.66
2019-02-26T05:32:58.253Z,102187.29
2019-02-26T05:34:03.839Z,102188.19
2019-02-26T05:35:07.836Z,102186.41
2019-02-26T05:36:14.222Z,102188.19
2019-02-26T05:37:17.901Z,102185.52
2019-02-26T05:38:23.924Z,102188.19
2019-02-26T05:39:28.843Z,102194.02
2019-02-26T05:40:37.502Z,102194.92
2019-02-26T05:41:40.539Z,102195.34
2019-02-26T05:42:45.234Z,102197.11
2019-02-26T05:43:52.174Z,102195.31
2019-02-26T05:44:59.157Z,102196.63
2019-02-26T05:46:03.862Z,102202.46
2019-02-26T05:47:06.805Z,102197.09
2019-02-26T05:48:12.729Z,102189.49
2019-02-26T05:49:19.369Z,102183.23
2019-02-26T05:50:22.952Z,102184.56
2019-02-26T05:51:27.914Z,102181.89
2019-02-26T05:52:35.654Z,102181.87
2019-02-26T05:53:38.821Z,102181.41
2019-02-26T05:54:42.728Z,102180.06
2019-02-26T05:55:48.756Z,102189.91
2019-02-26T05:56:52.965Z,102183.67
2019-02-26T05:57:56.896Z,102184.98
2019-02-26T05:59:04.347Z,102189.47
2019-02-26T06:00:08.573Z,102188.55
2019-02-26T06:01:16.160Z,102186.25
2019-02-26T06:02:21.723Z,102197.45
2019-02-26T06:03:25.712Z,102200.13
2019-02-26T06:04:31.708Z,102194.74
2019-02-26T06:05:35.828Z,102203.69
2019-02-26T06:06:40.036Z,102196.93
2019-02-26T06:07:44.953Z,102208.06
2019-02-26T06:08:48.809Z,102208.95
2019-02-26T06:09:55.731Z,102207.66
2019-02-26T06:10:59.426Z,102206.27
2019-02-26T06:12:03.274Z,102213.42
2019-02-26T06:13:10.056Z,102214.30
2019-02-26T06:14:14.053Z,102218.33
2019-02-26T06:15:20.216Z,102215.70
2019-02-26T06:16:26.592Z,102216.50
2019-02-26T06:17:30.499Z,102216.91
2019-02-26T06:18:34.849Z,102219.59
2019-02-26T06:19:44.930Z,102223.64
2019-02-26T06:20:51.585Z,102220.58
2019-02-26T06:21:56.661Z,102226.83
2019-02-26T06:23:00.804Z,102229.56
2019-02-26T06:24:06.162Z,102228.27
2019-02-26T06:25:18.415Z,102235.00
2019-02-26T06:26:17.819Z,102233.24
2019-02-26T06:27:24.768Z,102225.66
2019-02-26T06:28:28.616Z,102225.70
2019-02-26T06:29:35.082Z,102224.44
2019-02-26T06:30:39.963Z,102224.89
2019-02-26T06:31:45.074Z,102224.05
2019-02-26T06:32:50.169Z,102229.89
2019-02-26T06:33:54.766Z,102229.00
2019-02-26T06:34:58.597Z,102226.34
2019-02-26T06:36:04.688Z,102234.00
2019-02-26T06:37:19.690Z,102234.00
2019-02-26T06:38:25.872Z,102235.78
2019-02-26T06:39:31.767Z,102235.80
2019-02-26T06:40:36.968Z,102230.48
2019-02-26T06:41:42.381Z,102240.37
2019-02-26T06:42:48.082Z,102237.27
2019-02-26T06:43:54.950Z,102244.02
2019-02-26T06:44:58.399Z,102246.72
2019-02-26T06:46:03.186Z,102242.72
2019-02-26T06:47:09.140Z,102243.64
2019-02-26T06:48:16.981Z,102241.86
2019-02-26T06:49:20.598Z,102243.66
2019-02-26T06:50:25.129Z,102243.64
2019-02-26T06:51:30.934Z,102243.16
2019-02-26T06:52:37.309Z,102243.61
2019-02-26T06:53:45.032Z,102244.48
2019-02-26T06:54:50.586Z,102237.30
2019-02-26T06:55:52.585Z,102245.78
2019-02-26T06:56:56.923Z,102243.97
2019-02-26T06:58:19.651Z,102240.83
2019-02-26T06:59:31.852Z,102241.28
2019-02-26T07:00:35.265Z,102245.25
2019-02-26T07:01:41.819Z,102244.35
2019-02-26T07:02:46.207Z,102244.35
2019-02-26T07:03:50.267Z,102234.45
2019-02-26T07:04:54.439Z,102242.05
2019-02-26T07:06:01.652Z,102245.61
2019-02-26T07:07:06.355Z,102241.59
2019-02-26T07:08:09.876Z,102245.14
2019-02-26T07:09:16.429Z,102246.92
2019-02-26T07:10:24.304Z,102249.63
2019-02-26T07:11:28.112Z,102244.73
2019-02-26T07:12:32.573Z,102246.97
2019-02-26T07:13:39.169Z,102244.75
2019-02-26T07:14:43.452Z,102250.11
2019-02-26T07:15:47.657Z,102250.13
2019-02-26T07:16:52.159Z,102237.63
2019-02-26T07:18:00.097Z,102248.81
2019-02-26T07:19:03.904Z,102245.72
2019-02-26T07:20:09.131Z,102243.47
2019-02-26T07:21:13.589Z,102240.81
2019-02-26T07:22:18.338Z,102238.59
2019-02-26T07:23:22.948Z,102218.36
2019-02-26T07:24:27.286Z,102236.86
2019-02-26T07:25:35.803Z,102236.83
2019-02-26T07:26:41.156Z,102234.10
2019-02-26T07:27:44.947Z,102234.57
2019-02-26T07:28:50.925Z,102225.59
2019-02-26T07:29:55.265Z,102233.63
2019-02-26T07:31:00.462Z,102225.55
2019-02-26T07:32:05.432Z,102225.49
2019-02-26T07:33:10.407Z,102221.05
2019-02-26T07:34:18.140Z,102218.81
2019-02-26T07:35:21.432Z,102223.22
2019-02-26T07:36:28.149Z,102227.25
2019-02-26T07:37:34.047Z,102226.72
2019-02-26T07:38:41.159Z,102230.72
2019-02-26T07:39:44.325Z,102225.36
2019-02-26T07:40:49.328Z,102221.88
2019-02-26T07:41:54.403Z,102224.55
2019-02-26T07:42:59.659Z,102221.05
2019-02-26T07:44:03.556Z,102221.05
2019-02-26T07:45:14.668Z,102221.06
2019-02-26T07:46:14.592Z,102222.81
2019-02-26T07:47:19.563Z,102221.03
2019-02-26T07:48:26.201Z,102216.08
2019-02-26T07:49:29.890Z,102218.33
2019-02-26T07:50:37.435Z,102223.27
2019-02-26T07:51:40.556Z,102224.61
2019-02-26T07:52:47.311Z,102218.38
2019-02-26T07:53:53.526Z,102211.22
2019-02-26T07:54:57.484Z,102209.92
2019-02-26T07:56:03.714Z,102202.38
2019-02-26T07:57:07.592Z,102206.87
2019-02-26T07:58:13.876Z,102207.83
2019-02-26T07:59:27.252Z,102202.49
2019-02-26T08:00:24.501Z,102196.29
2019-02-26T08:01:28.434Z,102202.13
2019-02-26T08:02:34.920Z,102200.83
2019-02-26T08:03:39.338Z,102198.16
2019-02-26T08:04:43.588Z,102199.53
2019-02-26T08:05:47.679Z,102197.31
2019-02-26T08:06:54.119Z,102199.63
2019-02-26T08:07:58.647Z,102205.02
2019-02-26T08:09:04.782Z,102195.68
2019-02-26T08:10:12.821Z,102196.57
2019-02-26T08:11:17.569Z,102201.98
2019-02-26T08:12:22.056Z,102195.77
2019-02-26T08:13:29.026Z,102192.63
2019-02-26T08:14:32.606Z,102185.95
2019-02-26T08:15:37.555Z,102194.47
2019-02-26T08:16:42.232Z,102196.75
2019-02-26T08:17:50.328Z,102194.54
2019-02-26T08:18:54.120Z,102195.03
2019-02-26T08:19:58.524Z,102193.70
2019-02-26T08:21:03.031Z,102189.25
2019-02-26T08:22:08.075Z,102191.96
2019-02-26T08:23:12.326Z,102185.70
2019-02-26T08:24:17.212Z,102188.83
2019-02-26T08:25:22.178Z,102184.38
2019-02-26T08:26:26.792Z,102194.25
2019-02-26T08:27:33.313Z,102187.58
2019-02-26T08:28:38.895Z,102190.74
2019-02-26T08:29:43.402Z,102190.81
2019-02-26T08:30:49.787Z,102190.36
2019-02-26T08:31:54.586Z,102187.27
2019-02-26T08:33:04.294Z,102191.33
2019-02-26T08:34:06.315Z,102181.02
2019-02-26T08:35:10.996Z,102185.06
2019-02-26T08:36:14.857Z,102182.87
2019-02-26T08:37:19.259Z,102177.49
2019-02-26T08:38:23.171Z,102174.39
2019-02-26T08:39:27.756Z,102177.11
2019-02-26T08:40:32.444Z,102171.30
2019-02-26T08:41:36.496Z,102175.33
2019-02-26T08:42:40.452Z,102177.13
2019-02-26T08:43:47.081Z,102171.80
2019-02-26T08:44:51.994Z,102170.89
2019-02-26T08:45:57.276Z,102168.67
2019-02-26T08:47:06.009Z,102171.81
2019-02-26T08:48:07.703Z,102174.50
2019-02-26T08:49:13.777Z,102172.73
2019-02-26T08:50:17.689Z,102174.56
2019-02-26T08:51:22.565Z,102179.94
2019-02-26T08:52:28.949Z,102167.83
2019-02-26T08:53:32.808Z,102174.59
2019-02-26T08:54:37.049Z,102166.49
2019-02-26T08:55:41.452Z,102160.69
2019-02-26T08:56:45.559Z,102165.61
2019-02-26T08:57:51.543Z,102163.83
2019-02-26T08:58:55.480Z,102166.98
2019-02-26T08:59:59.749Z,102166.97
2019-02-26T09:01:04.388Z,102166.55
2019-02-26T09:02:08.394Z,102167.89
2019-02-26T09:03:13.728Z,102167.45
2019-02-26T09:04:21.061Z,102164.74
2019-02-26T09:05:26.346Z,102167.91
2019-02-26T09:06:30.014Z,102166.09
2019-02-26T09:07:34.272Z,102160.72
2019-02-26T09:08:40.652Z,102165.20
2019-02-26T09:09:47.148Z,102159.83
2019-02-26T09:10:50.451Z,102162.05
2019-02-26T09:11:55.918Z,102157.12
2019-02-26T09:13:00.480Z,102158.00
2019-02-26T09:14:06.588Z,102159.36
2019-02-26T09:15:12.426Z,102163.41
2019-02-26T09:16:16.266Z,102168.34
2019-02-26T09:17:23.174Z,102164.28
2019-02-26T09:18:28.078Z,102168.75
2019-02-26T09:19:33.012Z,102165.16
2019-02-26T09:20:37.724Z,102166.49
2019-02-26T09:21:44.599Z,102164.70
2019-02-26T09:22:50.720Z,102169.17
2019-02-26T09:23:56.907Z,102168.70
2019-02-26T09:25:02.176Z,102166.02
2019-02-26T09:26:07.057Z,102160.62
2019-02-26T09:27:11.628Z,102160.14
2019-02-26T09:28:15.630Z,102156.55
2019-02-26T09:29:22.154Z,102157.88
2019-02-26T09:30:27.945Z,102161.89
2019-02-26T09:31:31.461Z,102154.25
2019-02-26T09:32:37.428Z,102157.81
2019-02-26T09:33:43.587Z,102155.56
2019-02-26T09:34:46.992Z,102153.77
2019-02-26T09:35:52.143Z,102153.31
2019-02-26T09:36:58.223Z,102151.03
2019-02-26T09:38:02.515Z,102150.58
2019-02-26T09:39:08.759Z,102150.09
2019-02-26T09:40:14.411Z,102143.78
2019-02-26T09:41:19.407Z,102143.30
2019-02-26T09:42:25.656Z,102144.19
2019-02-26T09:43:29.697Z,102139.65
2019-02-26T09:44:35.756Z,102142.75
2019-02-26T09:45:41.192Z,102145.44
2019-02-26T09:46:45.207Z,102143.15
2019-02-26T09:47:50.196Z,102143.14
2019-02-26T09:48:55.426Z,102137.28
2019-02-26T09:49:59.700Z,102141.73
2019-02-26T09:51:04.822Z,102145.33
2019-02-26T09:52:09.736Z,102148.43
2019-02-26T09:53:13.639Z,102139.87
2019-02-26T09:54:20.019Z,102142.02
2019-02-26T09:55:23.759Z,102146.52
2019-02-26T09:56:28.195Z,102138.39
2019-02-26T09:57:32.847Z,102147.34
2019-02-26T09:58:37.481Z,102145.08
2019-02-26T09:59:42.489Z,102138.27
2019-02-26T10:00:48.119Z,102140.95
2019-02-26T10:01:54.153Z,102137.28
2019-02-26T10:02:58.291Z,102139.47
2019-02-26T10:04:05.391Z,102135.39
2019-02-26T10:05:08.640Z,102142.09
2019-02-26T10:06:15.561Z,102143.88
2019-02-26T10:07:19.196Z,102140.21
2019-02-26T10:08:24.950Z,102142.44
2019-02-26T10:09:28.698Z,102137.42
2019-02-26T10:10:33.689Z,102141.86
2019-02-26T10:11:40.280Z,102138.67
2019-02-26T10:12:44.922Z,102139.51
2019-02-26T10:13:49.402Z,102135.88
2019-02-26T10:14:57.702Z,102135.81
2019-02-26T10:16:02.043Z,102130.81
2019-02-26T10:17:06.631Z,102132.55
2019-02-26T10:18:10.536Z,102130.67
2019-02-26T10:19:15.314Z,102134.67
2019-02-26T10:20:24.773Z,102135.09
2019-02-26T10:21:26.841Z,102129.20
2019-02-26T10:22:33.364Z,102122.80
2019-02-26T10:23:37.561Z,102119.62
2019-02-26T10:24:42.010Z,102119.11
2019-02-26T10:25:45.925Z,102119.07
2019-02-26T10:26:49.834Z,102118.98
2019-02-26T10:27:53.817Z,102121.59
2019-02-26T10:29:03.683Z,102118.85
2019-02-26T10:30:07.202Z,102125.09
2019-02-26T10:31:09.766Z,102123.69
2019-02-26T10:32:13.601Z,102123.60
2019-02-26T10:33:19.178Z,102130.73
2019-02-26T10:34:26.848Z,102128.41
2019-02-26T10:35:33.161Z,102122.91
2019-02-26T10:36:40.744Z,102121.06
2019-02-26T10:37:53.051Z,102116.48
2019-02-26T10:38:57.860Z,102116.86
2019-02-26T10:40:02.865Z,102115.86
2019-02-26T10:41:06.772Z,102113.06
2019-02-26T10:42:12.161Z,102115.25
2019-02-26T10:43:16.571Z,102119.25
2019-02-26T10:44:21.244Z,102119.58
2019-02-26T10:45:26.028Z,102116.34
2019-02-26T10:46:32.140Z,102114.44
2019-02-26T10:47:35.888Z,102112.56
2019-02-26T10:48:41.607Z,102109.31
2019-02-26T10:49:46.749Z,102109.66
2019-02-26T10:50:52.005Z,102110.92
2019-02-26T10:51:57.864Z,102103.16
2019-02-26T10:53:07.333Z,102100.31
2019-02-26T10:54:09.661Z,102095.28
2019-02-26T10:55:17.299Z,102096.08
2019-02-26T10:56:19.014Z,102092.40
2019-02-26T10:57:22.991Z,102093.22
2019-02-26T10:58:27.168Z,102093.09
2019-02-26T10:59:31.065Z,102088.95
2019-02-26T11:00:37.834Z,102086.12
2019-02-26T11:01:41.473Z,102087.41
2019-02-26T11:02:46.081Z,102084.10
2019-02-26T11:03:52.844Z,102085.80
2019-02-26T11:04:56.967Z,102084.34
2019-02-26T11:06:01.396Z,102092.81
2019-02-26T11:07:08.837Z,102090.84
2019-02-26T11:08:11.011Z,102087.97
2019-02-26T11:09:18.223Z,102085.16
2019-02-26T11:10:22.706Z,102080.97
2019-02-26T11:11:26.526Z,102076.75
2019-02-26T11:12:33.409Z,102078.02
2019-02-26T11:13:37.366Z,102081.97
2019-02-26T11:14:42.386Z,102080.53
2019-02-26T11:15:48.851Z,102080.38
2019-02-26T11:16:53.730Z,102087.48
2019-02-26T11:17:58.161Z,102085.56
2019-02-26T11:19:04.225Z,102086.30
2019-02-26T11:20:09.252Z,102080.73
2019-02-26T11:21:13.174Z,102075.20
2019-02-26T11:22:20.157Z,102076.41
2019-02-26T11:23:30.739Z,102069.91
2019-02-26T11:24:31.411Z,102075.25
2019-02-26T11:25:36.940Z,102064.27
2019-02-26T11:26:43.730Z,102064.57
2019-02-26T11:27:48.513Z,102069.88
2019-02-26T11:28:52.685Z,102060.22
2019-02-26T11:29:57.818Z,102066.38
2019-02-26T11:31:02.568Z,102062.16
2019-02-26T11:32:07.806Z,102060.20
2019-02-26T11:33:15.086Z,102055.97
2019-02-26T11:34:18.660Z,102059.02
2019-02-26T11:35:24.652Z,102050.67
2019-02-26T11:36:31.243Z,102044.73
2019-02-26T11:37:34.547Z,102045.44
2019-02-26T11:38:40.200Z,102040.70
2019-02-26T11:39:45.128Z,102043.28
2019-02-26T11:40:49.053Z,102040.83
2019-02-26T11:41:54.577Z,102044.30
2019-02-26T11:43:00.078Z,102041.42
2019-02-26T11:44:09.869Z,102043.09
2019-02-26T11:45:17.427Z,102037.02
2019-02-26T11:46:22.594Z,102044.53
2019-02-26T11:47:26.360Z,102033.05
2019-02-26T11:48:32.687Z,102038.30
2019-02-26T11:49:36.888Z,102042.65
2019-02-26T11:50:44.544Z,102038.00
2019-02-26T11:51:48.473Z,102031.03
2019-02-26T11:52:54.819Z,102033.67
2019-02-26T11:54:00.073Z,102030.78
2019-02-26T11:55:06.554Z,102031.00
2019-02-26T11:56:10.796Z,102034.06
2019-02-26T11:57:15.406Z,102029.34
2019-02-26T11:58:22.308Z,102030.97
2019-02-26T11:59:27.104Z,102033.52
2019-02-26T12:00:45.485Z,102028.78
2019-02-26T12:01:50.445Z,102032.66
2019-02-26T12:02:54.731Z,102032.48
2019-02-26T12:04:03.591Z,102029.11
2019-02-26T12:05:08.000Z,102027.10
2019-02-26T12:06:11.620Z,102027.85
2019-02-26T12:07:15.543Z,102024.91
2019-02-26T12:08:22.343Z,102025.62
2019-02-26T12:09:25.705Z,102022.33
2019-02-26T12:10:32.293Z,102022.15
2019-02-26T12:11:35.711Z,102022.47
2019-02-26T12:12:40.288Z,102023.19
2019-02-26T12:13:45.176Z,102024.88
2019-02-26T12:14:50.921Z,102017.40
2019-02-26T12:15:55.077Z,102015.03
2019-02-26T12:16:59.003Z,102016.68
2019-02-26T12:18:03.250Z,102010.18
2019-02-26T12:19:08.749Z,102011.78
2019-02-26T12:20:14.856Z,102016.63
2019-02-26T12:21:19.856Z,102011.91
2019-02-26T12:22:25.112Z,102013.09
2019-02-26T12:23:29.673Z,102014.72
2019-02-26T12:24:36.015Z,102015.00
2019-02-26T12:25:39.911Z,102020.77
2019-02-26T12:26:45.284Z,102013.28
2019-02-26T12:27:49.400Z,102014.03
2019-02-26T12:28:54.724Z,102005.73
2019-02-26T12:30:00.023Z,102010.06
2019-02-26T12:31:05.141Z,102004.48
2019-02-26T12:32:09.967Z,102000.70